Time;durP1;ratioP1;P1;durP2;ratioP2;P2;SDS_P1;SDS_P2;PMS_P1;PMS_P2;Temp;Humidity;BMP_temperature;BMP_pressure;BME280_temperature;BME280_humidity;BME280_pressure;Samples;Min_cycle;Max_cycle;Signal;HPM_P1;HPM_P2
2022/04/01 00:02:00;;;;;;;22.08;19.02;;;;;;;;;;5007890;28;20040;-72
2022/04/01 00:04:26;;;;;;;21.08;18.98;;;;;;;;;;4992603;28;20034;-72
2022/04/01 00:06:51;;;;;;;21.33;19.15;;;;;;;;;;5006437;28;20037;-71
2022/04/01 00:09:17;;;;;;;22.27;19.88;;;;;;;;;;5008361;28;20069;-72
2022/04/01 00:11:43;;;;;;;22.35;20.10;;;;;;;;;;5008003;28;20088;-71
2022/04/01 00:14:08;;;;;;;26.02;19.08;;;;;;;;;;5008019;28;20034;-73
2022/04/01 00:16:34;;;;;;;22.23;19.83;;;;;;;;;;5004455;28;20045;-72
2022/04/01 00:19:00;;;;;;;23.80;20.23;;;;;;;;;;4997052;28;20034;-72
2022/04/01 00:21:25;;;;;;;25.67;20.00;;;;;;;;;;4993023;28;20022;-71
2022/04/01 00:23:51;;;;;;;21.38;19.02;;;;;;;;;;5007935;28;20044;-72
2022/04/01 00:26:16;;;;;;;23.80;20.58;;;;;;;;;;5001086;28;20041;-71
2022/04/01 00:28:42;;;;;;;30.00;21.75;;;;;;;;;;5006941;28;20131;-71
2022/04/01 00:31:09;;;;;;;26.67;21.55;;;;;;;;;;4993080;28;20037;-72
2022/04/01 00:33:35;;;;;;;29.52;21.92;;;;;;;;;;4992856;28;20497;-73
2022/04/01 00:36:02;;;;;;;29.85;23.70;;;;;;;;;;5007310;28;20038;-71
2022/04/01 00:38:28;;;;;;;31.67;23.35;;;;;;;;;;5008733;28;20607;-71
2022/04/01 00:40:54;;;;;;;28.90;22.35;;;;;;;;;;5008376;28;20113;-71
2022/04/01 00:43:34;;;;;;;34.78;22.10;;;;;;;;;;5006150;28;20501;-74
2022/04/01 00:45:59;;;;;;;32.30;23.08;;;;;;;;;;4999395;28;20604;-71
2022/04/01 00:48:27;;;;;;;29.50;23.13;;;;;;;;;;4996949;28;20488;-71
2022/04/01 00:50:53;;;;;;;34.35;23.30;;;;;;;;;;5006012;28;20125;-71
2022/04/01 00:53:19;;;;;;;30.55;22.33;;;;;;;;;;4985280;28;20042;-72
2022/04/01 00:55:46;;;;;;;29.80;22.20;;;;;;;;;;4990139;28;20038;-71
2022/04/01 00:58:14;;;;;;;28.48;23.45;;;;;;;;;;4991873;28;20041;-72
2022/04/01 01:00:40;;;;;;;32.35;24.95;;;;;;;;;;5005693;28;20038;-73
2022/04/01 01:03:07;;;;;;;29.67;23.67;;;;;;;;;;4990125;28;20048;-71
2022/04/01 01:05:32;;;;;;;31.75;23.30;;;;;;;;;;5007697;28;20036;-71
2022/04/01 01:07:58;;;;;;;33.72;22.67;;;;;;;;;;4993932;28;20041;-72
2022/04/01 01:10:25;;;;;;;30.30;23.85;;;;;;;;;;5005241;28;20033;-71
2022/04/01 01:12:51;;;;;;;28.67;22.48;;;;;;;;;;5007268;28;20072;-70
2022/04/01 01:15:18;;;;;;;32.55;22.90;;;;;;;;;;4994988;28;20046;-71
2022/04/01 01:17:45;;;;;;;31.02;25.25;;;;;;;;;;5004086;28;20057;-71
2022/04/01 01:20:12;;;;;;;26.98;22.60;;;;;;;;;;5015191;28;20493;-72
2022/04/01 01:22:42;;;;;;;28.52;22.38;;;;;;;;;;5002018;28;20030;-72
2022/04/01 01:25:11;;;;;;;28.25;21.95;;;;;;;;;;4992178;28;20041;-70
2022/04/01 01:27:37;;;;;;;32.53;22.75;;;;;;;;;;4997477;28;20042;-72
2022/04/01 01:30:04;;;;;;;33.85;24.73;;;;;;;;;;4973994;28;20061;-71
2022/04/01 01:32:32;;;;;;;24.83;21.52;;;;;;;;;;4990103;28;20038;-70
2022/04/01 01:35:02;;;;;;;26.10;22.90;;;;;;;;;;5000891;28;20041;-70
2022/04/01 01:37:28;;;;;;;30.85;23.52;;;;;;;;;;4995742;28;20696;-70
2022/04/01 01:39:55;;;;;;;32.08;23.73;;;;;;;;;;4996323;28;20061;-72
2022/04/01 01:42:20;;;;;;;32.80;24.13;;;;;;;;;;5006308;28;20085;-72
2022/04/01 01:44:46;;;;;;;28.83;22.30;;;;;;;;;;5018899;28;20046;-72
2022/04/01 01:47:12;;;;;;;31.92;23.23;;;;;;;;;;4994775;28;20532;-72
2022/04/01 01:54:42;;;;;;;31.20;22.58;;;;;;;;;;4999227;28;20397;-71
2022/04/01 01:55:08;;;;;;;27.80;22.27;;;;;;;;;;5024670;28;20034;-71
2022/04/01 01:57:35;;;;;;;28.70;22.05;;;;;;;;;;4994699;28;20033;-72
2022/04/01 02:00:10;;;;;;;25.33;20.55;;;;;;;;;;4995886;28;20378;-70
2022/04/01 02:02:39;;;;;;;28.80;21.67;;;;;;;;;;5007003;28;20032;-72
2022/04/01 02:05:08;;;;;;;32.88;24.02;;;;;;;;;;5004437;28;20041;-71
2022/04/01 02:07:34;;;;;;;31.27;23.92;;;;;;;;;;4989447;28;20065;-71
2022/04/01 02:09:59;;;;;;;32.30;23.58;;;;;;;;;;4993928;28;20058;-70
2022/04/01 02:12:26;;;;;;;32.28;22.40;;;;;;;;;;5012147;28;20084;-70
2022/04/01 02:14:52;;;;;;;32.72;23.55;;;;;;;;;;5009993;28;20048;-71
2022/04/01 02:17:18;;;;;;;34.35;24.33;;;;;;;;;;5009119;28;20325;-70
2022/04/01 02:19:44;;;;;;;32.30;22.95;;;;;;;;;;5009167;28;20038;-72
2022/04/01 02:22:10;;;;;;;36.20;24.15;;;;;;;;;;4978288;28;20038;-70
2022/04/01 02:24:38;;;;;;;35.63;23.42;;;;;;;;;;5002601;28;20038;-71
2022/04/01 02:27:04;;;;;;;30.23;23.45;;;;;;;;;;4995836;28;20382;-72
2022/04/01 02:29:30;;;;;;;30.73;22.02;;;;;;;;;;5000740;28;20049;-71
2022/04/01 02:32:12;;;;;;;34.00;23.52;;;;;;;;;;5009602;28;20034;-72
2022/04/01 02:35:04;;;;;;;36.78;24.00;;;;;;;;;;5011071;28;20080;-73
2022/04/01 02:37:32;;;;;;;28.33;20.88;;;;;;;;;;4977855;28;20038;-71
2022/04/01 02:40:00;;;;;;;33.33;21.38;;;;;;;;;;4994495;28;20410;-71
2022/04/01 02:42:30;;;;;;;30.40;22.55;;;;;;;;;;5011250;28;20044;-71
2022/04/01 02:44:56;;;;;;;30.02;22.58;;;;;;;;;;4992942;28;20048;-71
2022/04/01 02:47:22;;;;;;;29.27;22.23;;;;;;;;;;5010317;28;20041;-72
2022/04/01 02:49:48;;;;;;;33.00;22.23;;;;;;;;;;5010057;28;20400;-72
2022/04/01 02:52:14;;;;;;;30.65;22.73;;;;;;;;;;5000878;28;20509;-70
2022/04/01 02:54:40;;;;;;;36.28;22.75;;;;;;;;;;4998062;28;20046;-71
2022/04/01 02:57:07;;;;;;;34.45;24.10;;;;;;;;;;5012925;28;20041;-71
2022/04/01 02:59:33;;;;;;;39.22;26.40;;;;;;;;;;4997045;28;20042;-72
2022/04/01 03:02:00;;;;;;;39.50;25.80;;;;;;;;;;5016109;28;20724;-72
2022/04/01 03:04:27;;;;;;;35.10;24.67;;;;;;;;;;4992978;28;20113;-71
2022/04/01 03:06:55;;;;;;;34.42;24.83;;;;;;;;;;4975957;28;20056;-72
2022/04/01 03:09:21;;;;;;;40.03;25.33;;;;;;;;;;4999670;28;20040;-71
2022/04/01 03:11:56;;;;;;;41.38;26.17;;;;;;;;;;4997159;28;20045;-70
2022/04/01 03:14:45;;;;;;;34.08;23.50;;;;;;;;;;4981220;28;20578;-71
2022/04/01 03:17:33;;;;;;;32.30;24.13;;;;;;;;;;5001499;28;20473;-72
2022/04/01 03:20:01;;;;;;;33.75;24.42;;;;;;;;;;5013087;28;20466;-71
2022/04/01 03:22:28;;;;;;;34.45;24.33;;;;;;;;;;5013458;28;20088;-71
2022/04/01 03:24:54;;;;;;;33.33;23.80;;;;;;;;;;5004130;28;20034;-73
2022/04/01 03:27:23;;;;;;;39.97;25.65;;;;;;;;;;5007059;28;20487;-71
2022/04/01 03:29:49;;;;;;;32.42;23.92;;;;;;;;;;5013190;28;20083;-71
2022/04/01 03:32:15;;;;;;;39.05;25.98;;;;;;;;;;5008553;28;20034;-71
2022/04/01 03:34:42;;;;;;;38.13;24.42;;;;;;;;;;5015065;28;20112;-72
2022/04/01 03:37:10;;;;;;;38.92;24.48;;;;;;;;;;5005701;28;20121;-71
2022/04/01 03:39:35;;;;;;;38.22;26.05;;;;;;;;;;4971715;28;20073;-72
2022/04/01 03:42:06;;;;;;;30.85;24.25;;;;;;;;;;5001506;28;20407;-72
2022/04/01 03:44:36;;;;;;;30.40;23.45;;;;;;;;;;4982553;28;20041;-72
2022/04/01 03:47:24;;;;;;;31.83;24.70;;;;;;;;;;5007465;28;20108;-72
2022/04/01 03:49:51;;;;;;;31.77;23.20;;;;;;;;;;4996409;28;20092;-71
2022/04/01 03:52:21;;;;;;;31.02;24.45;;;;;;;;;;4989219;28;20088;-71
2022/04/01 03:54:47;;;;;;;27.65;22.88;;;;;;;;;;4995554;28;20500;-71
2022/04/01 03:57:41;;;;;;;29.75;23.45;;;;;;;;;;4990682;28;20168;-71
2022/04/01 04:00:42;;;;;;;28.38;21.33;;;;;;;;;;4987781;28;20377;-71
2022/04/01 04:03:09;;;;;;;30.42;23.17;;;;;;;;;;5008815;28;20099;-70
2022/04/01 04:05:37;;;;;;;27.10;22.67;;;;;;;;;;5000774;28;20041;-71
2022/04/01 04:08:05;;;;;;;28.27;23.25;;;;;;;;;;4994468;28;20046;-71
2022/04/01 04:10:34;;;;;;;32.20;22.88;;;;;;;;;;4994250;28;20072;-72
2022/04/01 04:13:21;;;;;;;28.10;21.52;;;;;;;;;;4985113;28;20092;-71
2022/04/01 04:15:47;;;;;;;30.10;22.15;;;;;;;;;;5003222;28;20473;-71
2022/04/01 04:18:17;;;;;;;29.77;22.27;;;;;;;;;;4974862;28;20041;-71
2022/04/01 04:21:10;;;;;;;27.75;22.33;;;;;;;;;;5016200;28;20041;-71
2022/04/01 04:23:46;;;;;;;28.13;22.90;;;;;;;;;;4980930;28;20280;-72
2022/04/01 04:26:16;;;;;;;28.42;22.52;;;;;;;;;;4992665;28;20034;-72
2022/04/01 04:28:50;;;;;;;33.05;24.52;;;;;;;;;;5020742;28;20034;-72
2022/04/01 04:31:57;;;;;;;30.35;22.70;;;;;;;;;;4991320;28;20058;-72
2022/04/01 04:34:34;;;;;;;26.60;22.17;;;;;;;;;;4987961;28;20070;-73
2022/04/01 04:37:01;;;;;;;33.47;23.25;;;;;;;;;;4995293;28;20046;-72
2022/04/01 04:39:32;;;;;;;28.02;23.27;;;;;;;;;;5007367;28;20049;-72
2022/04/01 04:42:01;;;;;;;26.60;22.95;;;;;;;;;;5015243;28;20029;-72
2022/04/01 04:44:29;;;;;;;28.17;21.65;;;;;;;;;;4997029;28;20033;-73
2022/04/01 04:46:57;;;;;;;35.45;26.70;;;;;;;;;;5016240;28;20044;-71
2022/04/01 04:49:25;;;;;;;;;;;;;;;;;;4991009;28;20380;-73
2022/04/01 04:51:52;;;;;;;26.13;21.75;;;;;;;;;;5022081;28;19957;-72
2022/04/01 04:54:25;;;;;;;32.38;25.60;;;;;;;;;;4998085;28;20439;-72
2022/04/01 04:57:15;;;;;;;31.95;21.90;;;;;;;;;;4994425;28;20042;-71
2022/04/01 04:59:42;;;;;;;24.25;21.65;;;;;;;;;;5006387;28;20065;-72
2022/04/01 05:02:18;;;;;;;30.92;22.52;;;;;;;;;;5015688;28;20041;-71
2022/04/01 05:05:07;;;;;;;26.45;23.17;;;;;;;;;;4992738;28;20485;-72
2022/04/01 05:08:07;;;;;;;28.48;23.48;;;;;;;;;;5001623;28;20041;-72
2022/04/01 05:10:55;;;;;;;33.08;25.95;;;;;;;;;;5007492;28;20056;-72
2022/04/01 05:13:29;;;;;;;30.63;23.75;;;;;;;;;;4993860;28;20378;-72
2022/04/01 05:16:07;;;;;;;27.55;23.48;;;;;;;;;;5014829;28;20443;-71
2022/04/01 05:18:40;;;;;;;26.27;23.45;;;;;;;;;;4993639;28;20049;-72
2022/04/01 05:21:23;;;;;;;27.75;22.15;;;;;;;;;;5012739;28;20076;-71
2022/04/01 05:24:03;;;;;;;25.73;20.67;;;;;;;;;;4977382;28;20114;-72
2022/04/01 05:26:40;;;;;;;25.27;22.63;;;;;;;;;;5005841;28;20048;-71
2022/04/01 05:29:31;;;;;;;29.40;24.45;;;;;;;;;;5012697;28;20409;-71
2022/04/01 05:32:05;;;;;;;24.17;21.35;;;;;;;;;;5005483;28;20038;-71
2022/04/01 05:34:42;;;;;;;23.75;21.00;;;;;;;;;;5001974;28;20096;-72
2022/04/01 05:37:08;;;;;;;27.00;22.20;;;;;;;;;;4990647;28;20049;-71
2022/04/01 05:39:37;;;;;;;27.85;23.00;;;;;;;;;;4993150;28;20412;-71
2022/04/01 05:42:10;;;;;;;27.92;22.60;;;;;;;;;;5002742;28;20034;-72
2022/04/01 05:44:43;;;;;;;27.73;22.92;;;;;;;;;;4983781;28;20080;-72
2022/04/01 05:47:10;;;;;;;24.20;21.52;;;;;;;;;;4977996;28;20306;-71
2022/04/01 05:49:40;;;;;;;34.80;27.02;;;;;;;;;;5012262;28;20041;-72
2022/04/01 05:52:11;;;;;;;23.50;21.08;;;;;;;;;;4996721;28;20121;-72
2022/04/01 05:54:39;;;;;;;25.98;21.80;;;;;;;;;;4993928;28;20042;-72
2022/04/01 05:57:07;;;;;;;24.13;20.52;;;;;;;;;;5010165;28;20072;-72
2022/04/01 05:59:33;;;;;;;22.67;20.23;;;;;;;;;;5009230;28;20042;-72
2022/04/01 06:02:34;;;;;;;22.98;20.20;;;;;;;;;;5015344;28;20107;-71
2022/04/01 06:05:13;;;;;;;;;;;;;;;;;;4994439;28;20117;-72
2022/04/01 06:08:01;;;;;;;22.80;20.48;;;;;;;;;;5003783;23;19902;-72
2022/04/01 06:10:37;;;;;;;24.25;21.75;;;;;;;;;;4955390;28;20516;-73
2022/04/01 06:13:24;;;;;;;24.08;20.98;;;;;;;;;;4972029;28;20034;-73
2022/04/01 06:16:25;;;;;;;23.38;20.45;;;;;;;;;;4969898;28;20406;-73
2022/04/01 06:19:00;;;;;;;21.52;19.45;;;;;;;;;;4960247;28;20078;-73
2022/04/01 06:21:27;;;;;;;23.80;21.33;;;;;;;;;;4970693;28;20035;-73
2022/04/01 06:24:40;;;;;;;23.17;20.50;;;;;;;;;;4970979;28;20135;-73
2022/04/01 06:27:11;;;;;;;22.30;20.05;;;;;;;;;;4945281;28;20057;-72
2022/04/01 06:29:39;;;;;;;24.05;19.83;;;;;;;;;;4968949;28;20077;-73
2022/04/01 06:32:13;;;;;;;23.85;20.65;;;;;;;;;;4970368;28;20042;-72
2022/04/01 06:35:11;;;;;;;24.10;21.60;;;;;;;;;;4954048;28;20402;-73
2022/04/01 06:38:06;;;;;;;25.38;22.52;;;;;;;;;;4966520;28;20046;-72
2022/04/01 06:40:58;;;;;;;28.55;25.55;;;;;;;;;;4955380;28;20409;-73
2022/04/01 06:43:32;;;;;;;22.50;20.30;;;;;;;;;;4954435;28;20039;-72
2022/04/01 06:46:16;;;;;;;21.30;19.30;;;;;;;;;;4969288;28;20057;-72
2022/04/01 06:48:53;;;;;;;22.23;20.13;;;;;;;;;;4960021;28;20047;-72
2022/04/01 06:51:38;;;;;;;26.27;23.70;;;;;;;;;;4971489;28;20069;-72
2022/04/01 06:54:22;;;;;;;22.52;20.38;;;;;;;;;;4971044;28;20039;-72
2022/04/01 06:57:07;;;;;;;23.60;21.40;;;;;;;;;;4969416;28;20038;-72
2022/04/01 07:00:08;;;;;;;24.85;22.55;;;;;;;;;;4968824;28;20145;-73
2022/04/01 07:02:34;;;;;;;22.55;20.50;;;;;;;;;;4971826;28;20035;-71
2022/04/01 07:05:00;;;;;;;23.05;20.80;;;;;;;;;;4969980;28;20042;-72
2022/04/01 07:07:26;;;;;;;26.33;23.77;;;;;;;;;;4961145;28;20118;-73
2022/04/01 07:09:52;;;;;;;25.05;22.55;;;;;;;;;;4971390;28;20034;-73
2022/04/01 07:12:18;;;;;;;22.80;20.58;;;;;;;;;;4950943;29;20039;-73
2022/04/01 07:14:44;;;;;;;26.08;23.58;;;;;;;;;;4968097;28;20047;-72
2022/04/01 07:17:10;;;;;;;27.17;24.35;;;;;;;;;;4969165;28;20057;-74
2022/04/01 07:19:35;;;;;;;24.05;21.58;;;;;;;;;;4970544;28;20070;-73
2022/04/01 07:22:01;;;;;;;24.77;22.42;;;;;;;;;;4971091;28;20486;-72
2022/04/01 07:24:27;;;;;;;25.83;21.27;;;;;;;;;;4969249;28;20035;-72
2022/04/01 07:26:52;;;;;;;24.77;22.27;;;;;;;;;;4969791;28;20038;-72
2022/04/01 07:29:18;;;;;;;26.33;23.63;;;;;;;;;;4970529;28;20047;-73
2022/04/01 07:34:37;;;;;;;26.92;24.00;;;;;;;;;;4968819;28;20043;-72
2022/04/01 07:37:04;;;;;;;26.90;23.95;;;;;;;;;;4969855;28;20035;-73
2022/04/01 07:39:31;;;;;;;26.67;23.88;;;;;;;;;;4970537;28;20043;-72
2022/04/01 07:41:57;;;;;;;26.45;23.65;;;;;;;;;;4969721;28;20030;-74
2022/04/01 07:44:23;;;;;;;25.70;23.00;;;;;;;;;;4981589;28;20117;-71
2022/04/01 07:46:50;;;;;;;26.40;23.23;;;;;;;;;;4971677;28;20565;-72
2022/04/01 07:49:17;;;;;;;25.98;23.25;;;;;;;;;;4969304;28;20035;-72
2022/04/01 07:51:43;;;;;;;24.90;22.48;;;;;;;;;;4969770;28;20027;-72
2022/04/01 07:54:11;;;;;;;23.33;21.10;;;;;;;;;;4970374;28;20037;-72
2022/04/01 07:56:37;;;;;;;26.25;22.55;;;;;;;;;;4953199;28;20074;-72
2022/04/01 07:59:04;;;;;;;27.33;24.42;;;;;;;;;;4969035;28;20038;-72
2022/04/01 08:01:30;;;;;;;26.92;24.23;;;;;;;;;;4969508;28;20113;-72
2022/04/01 08:03:56;;;;;;;25.88;23.17;;;;;;;;;;4969215;28;20130;-73
2022/04/01 08:06:21;;;;;;;28.27;25.48;;;;;;;;;;4971233;28;20038;-73
2022/04/01 08:08:47;;;;;;;23.55;21.15;;;;;;;;;;4968079;28;20104;-72
2022/04/01 08:11:13;;;;;;;24.30;22.00;;;;;;;;;;4969198;28;20625;-72
2022/04/01 08:13:38;;;;;;;24.30;21.98;;;;;;;;;;4969823;28;20134;-72
2022/04/01 08:16:04;;;;;;;26.50;23.88;;;;;;;;;;4969523;28;20493;-71
2022/04/01 08:18:30;;;;;;;26.13;23.42;;;;;;;;;;4973496;28;20038;-73
2022/04/01 08:20:56;;;;;;;23.42;21.20;;;;;;;;;;4958212;28;20486;-71
2022/04/01 08:23:22;;;;;;;23.58;21.23;;;;;;;;;;4970184;28;20043;-71
2022/04/01 08:25:48;;;;;;;24.88;22.38;;;;;;;;;;4951388;28;20116;-73
2022/04/01 08:28:14;;;;;;;23.27;20.98;;;;;;;;;;4969329;28;20117;-71
2022/04/01 08:30:41;;;;;;;22.48;20.42;;;;;;;;;;4952723;28;20185;-70
2022/04/01 08:33:07;;;;;;;24.63;22.30;;;;;;;;;;4968716;28;20035;-73
2022/04/01 08:35:33;;;;;;;21.02;19.15;;;;;;;;;;4968675;28;20053;-72
2022/04/01 08:38:02;;;;;;;21.15;19.33;;;;;;;;;;4969554;28;20034;-73
2022/04/01 08:40:29;;;;;;;21.70;19.80;;;;;;;;;;4969498;28;20070;-73
2022/04/01 08:42:55;;;;;;;21.80;19.77;;;;;;;;;;4963423;28;20039;-73
2022/04/01 08:45:21;;;;;;;20.02;18.17;;;;;;;;;;4953571;28;20032;-73
2022/04/01 08:47:48;;;;;;;22.90;20.85;;;;;;;;;;4968583;28;20490;-73
2022/04/01 08:50:14;;;;;;;20.50;18.83;;;;;;;;;;4969184;28;20410;-72
2022/04/01 08:52:40;;;;;;;22.05;19.95;;;;;;;;;;4967914;28;20031;-73
2022/04/01 08:55:08;;;;;;;20.25;18.45;;;;;;;;;;4963128;28;20494;-73
2022/04/01 08:57:36;;;;;;;18.88;17.33;;;;;;;;;;4967795;28;20039;-73
2022/04/01 09:00:23;;;;;;;20.02;18.27;;;;;;;;;;4955239;28;20043;-73
2022/04/01 09:03:03;;;;;;;17.92;16.52;;;;;;;;;;4947821;28;20046;-71
2022/04/01 09:05:29;;;;;;;18.23;16.80;;;;;;;;;;4952859;28;20046;-71
2022/04/01 09:08:03;;;;;;;18.83;17.25;;;;;;;;;;4964471;28;20046;-73
2022/04/01 09:10:29;;;;;;;19.15;17.55;;;;;;;;;;4968152;28;20375;-71
2022/04/01 09:12:55;;;;;;;19.30;17.70;;;;;;;;;;4969049;28;20932;-73
2022/04/01 09:15:21;;;;;;;19.77;18.17;;;;;;;;;;4951084;28;20063;-73
2022/04/01 09:17:48;;;;;;;19.60;17.90;;;;;;;;;;4968603;28;20438;-73
2022/04/01 09:20:16;;;;;;;20.70;18.90;;;;;;;;;;4967825;28;20049;-72
2022/04/01 09:22:44;;;;;;;19.08;17.52;;;;;;;;;;4969663;28;20041;-72
2022/04/01 09:25:18;;;;;;;20.08;18.42;;;;;;;;;;4968402;28;20049;-72
2022/04/01 09:27:49;;;;;;;20.30;18.52;;;;;;;;;;4968150;28;20144;-72
2022/04/01 09:30:26;;;;;;;22.20;20.02;;;;;;;;;;4967935;28;20421;-72
2022/04/01 09:33:00;;;;;;;25.00;21.75;;;;;;;;;;4967221;28;20121;-72
2022/04/01 09:35:32;;;;;;;20.35;18.55;;;;;;;;;;4967442;28;20560;-72
2022/04/01 09:38:04;;;;;;;20.83;19.13;;;;;;;;;;4968864;28;20043;-73
2022/04/01 09:40:30;;;;;;;21.02;19.02;;;;;;;;;;4969032;28;20121;-72
2022/04/01 09:42:59;;;;;;;19.20;17.60;;;;;;;;;;4970688;28;20035;-73
2022/04/01 09:45:31;;;;;;;20.83;19.02;;;;;;;;;;4971531;28;20528;-73
2022/04/01 09:48:04;;;;;;;20.15;18.45;;;;;;;;;;4970604;28;20094;-73
2022/04/01 09:50:34;;;;;;;18.00;16.60;;;;;;;;;;4953754;29;20062;-73
2022/04/01 09:53:21;;;;;;;19.33;17.73;;;;;;;;;;4966860;28;20027;-73
2022/04/01 09:55:50;;;;;;;17.95;16.55;;;;;;;;;;4972813;28;20050;-70
2022/04/01 09:58:18;;;;;;;;;;;;;;;;;;4966372;28;20070;-72
2022/04/01 10:00:45;;;;;;;18.65;17.15;;;;;;;;;;4970252;28;19942;-73
2022/04/01 10:03:12;;;;;;;18.30;16.83;;;;;;;;;;4968584;28;20517;-73
2022/04/01 10:05:42;;;;;;;18.58;17.02;;;;;;;;;;4968690;28;20561;-73
2022/04/01 10:08:10;;;;;;;17.85;16.40;;;;;;;;;;4968623;28;20058;-73
2022/04/01 10:10:38;;;;;;;18.75;17.23;;;;;;;;;;4972199;28;20073;-72
2022/04/01 10:13:07;;;;;;;19.17;17.60;;;;;;;;;;4971244;28;20030;-72
2022/04/01 10:15:35;;;;;;;18.88;17.33;;;;;;;;;;4971998;28;20034;-72
2022/04/01 10:18:01;;;;;;;19.40;17.52;;;;;;;;;;4972347;28;20062;-72
2022/04/01 10:20:36;;;;;;;18.80;17.15;;;;;;;;;;4958509;28;20474;-72
2022/04/01 10:23:07;;;;;;;20.35;18.55;;;;;;;;;;4971689;28;20195;-71
2022/04/01 10:25:53;;;;;;;20.20;18.45;;;;;;;;;;4971308;28;20481;-71
2022/04/01 10:28:20;;;;;;;19.25;17.55;;;;;;;;;;4968798;28;20058;-72
2022/04/01 10:30:53;;;;;;;19.05;17.27;;;;;;;;;;4971747;28;20043;-72
2022/04/01 10:33:25;;;;;;;21.35;19.33;;;;;;;;;;4970640;28;20070;-73
2022/04/01 10:35:51;;;;;;;20.20;18.45;;;;;;;;;;4970815;28;20070;-72
2022/04/01 10:38:19;;;;;;;20.08;18.38;;;;;;;;;;4971684;28;20046;-73
2022/04/01 10:40:50;;;;;;;19.10;17.50;;;;;;;;;;4972096;28;20065;-73
2022/04/01 10:43:27;;;;;;;19.80;18.10;;;;;;;;;;4971718;28;20105;-72
2022/04/01 10:45:57;;;;;;;19.40;17.80;;;;;;;;;;4970544;28;20142;-73
2022/04/01 10:51:44;;;;;;;19.90;18.25;;;;;;;;;;4971549;28;20054;-73
2022/04/01 10:54:12;;;;;;;19.52;17.90;;;;;;;;;;4970240;28;20074;-73
2022/04/01 10:56:41;;;;;;;20.02;18.42;;;;;;;;;;4955416;28;20054;-72
2022/04/01 10:59:07;;;;;;;19.85;18.15;;;;;;;;;;4967704;28;20047;-72
2022/04/01 11:01:35;;;;;;;19.42;17.83;;;;;;;;;;4956429;28;20042;-72
2022/04/01 11:04:10;;;;;;;18.13;16.65;;;;;;;;;;4969250;28;20046;-72
2022/04/01 11:06:56;;;;;;;17.95;16.60;;;;;;;;;;4968126;28;20532;-72
2022/04/01 11:09:37;;;;;;;19.35;17.88;;;;;;;;;;4965582;28;20049;-72
2022/04/01 11:12:14;;;;;;;18.00;16.60;;;;;;;;;;4968522;28;20046;-72
2022/04/01 11:14:59;;;;;;;17.63;16.23;;;;;;;;;;4967720;28;20043;-71
2022/04/01 11:17:49;;;;;;;17.50;16.10;;;;;;;;;;4967548;28;20053;-72
2022/04/01 11:20:18;;;;;;;18.20;16.85;;;;;;;;;;4965072;28;20034;-73
2022/04/01 11:22:53;;;;;;;17.90;16.25;;;;;;;;;;4967218;28;20042;-72
2022/04/01 11:25:24;;;;;;;18.20;16.88;;;;;;;;;;4966315;28;20042;-72
2022/04/01 11:28:02;;;;;;;17.63;16.35;;;;;;;;;;4966169;28;20096;-72
2022/04/01 11:30:30;;;;;;;17.40;16.20;;;;;;;;;;4967665;28;20051;-71
2022/04/01 11:33:01;;;;;;;18.13;16.73;;;;;;;;;;4965290;28;20043;-71
2022/04/01 11:35:30;;;;;;;18.15;16.85;;;;;;;;;;4966841;28;20045;-72
2022/04/01 11:37:56;;;;;;;17.50;16.15;;;;;;;;;;4966263;28;20498;-72
2022/04/01 11:40:30;;;;;;;19.30;17.67;;;;;;;;;;4967309;28;20046;-72
2022/04/01 11:42:57;;;;;;;18.05;16.67;;;;;;;;;;4966677;28;20035;-71
2022/04/01 11:45:27;;;;;;;17.30;15.95;;;;;;;;;;4956978;28;20137;-72
2022/04/01 11:47:54;;;;;;;16.90;15.70;;;;;;;;;;4967719;28;20042;-72
2022/04/01 11:50:22;;;;;;;16.48;15.35;;;;;;;;;;4967363;28;20114;-71
2022/04/01 11:52:50;;;;;;;18.25;16.85;;;;;;;;;;4966139;28;20053;-73
2022/04/01 11:55:22;;;;;;;17.25;15.95;;;;;;;;;;4966889;28;20198;-72
2022/04/01 11:57:52;;;;;;;16.70;15.50;;;;;;;;;;4963306;28;20134;-73
2022/04/01 12:00:21;;;;;;;17.20;15.90;;;;;;;;;;4952640;28;20038;-72
2022/04/01 12:02:51;;;;;;;17.20;15.90;;;;;;;;;;4948453;28;20038;-73
2022/04/01 12:05:17;;;;;;;;;;;;;;;;;;4968806;28;20057;-73
2022/04/01 12:10:38;;;;;;;16.98;15.68;;;;;;;;;;4932755;28;20074;-73
2022/04/01 12:13:07;;;;;;;18.38;16.98;;;;;;;;;;4938661;28;20668;-73
2022/04/01 12:15:35;;;;;;;17.80;16.50;;;;;;;;;;4968475;28;20050;-71
2022/04/01 12:18:07;;;;;;;18.38;16.88;;;;;;;;;;4969117;28;20054;-71
2022/04/01 12:20:41;;;;;;;18.02;16.60;;;;;;;;;;4969449;28;20047;-73
2022/04/01 12:23:07;;;;;;;16.45;15.35;;;;;;;;;;4967467;28;20046;-73
2022/04/01 12:25:37;;;;;;;18.23;16.83;;;;;;;;;;4967543;28;20046;-71
2022/04/01 12:28:04;;;;;;;17.02;15.73;;;;;;;;;;4968314;28;20054;-72
2022/04/01 12:30:42;;;;;;;17.08;15.88;;;;;;;;;;4967123;28;20051;-72
2022/04/01 12:33:14;;;;;;;18.60;17.20;;;;;;;;;;4961200;28;20740;-73
2022/04/01 12:36:06;;;;;;;18.30;16.80;;;;;;;;;;4967471;28;20042;-74
2022/04/01 12:38:43;;;;;;;17.42;16.13;;;;;;;;;;4968420;28;20050;-73
2022/04/01 12:41:17;;;;;;;18.20;16.70;;;;;;;;;;4966992;28;20043;-74
2022/04/01 12:43:47;;;;;;;17.58;16.27;;;;;;;;;;4967821;28;20053;-73
2022/04/01 12:46:34;;;;;;;18.08;16.67;;;;;;;;;;4967446;28;20042;-74
2022/04/01 12:49:14;;;;;;;17.02;15.77;;;;;;;;;;4967345;28;20517;-74
2022/04/01 12:51:49;;;;;;;17.58;16.20;;;;;;;;;;4966512;28;20621;-73
2022/04/01 12:54:31;;;;;;;18.58;17.17;;;;;;;;;;4947445;28;20042;-74
2022/04/01 12:56:58;;;;;;;18.60;17.10;;;;;;;;;;4966203;28;20152;-73
2022/04/01 12:59:24;;;;;;;17.38;15.88;;;;;;;;;;4966048;28;20473;-74
2022/04/01 13:02:13;;;;;;;18.92;17.38;;;;;;;;;;4966869;28;20031;-73
2022/04/01 13:04:42;;;;;;;17.98;16.50;;;;;;;;;;4948765;28;20070;-74
2022/04/01 13:07:31;;;;;;;18.85;17.15;;;;;;;;;;4965275;28;20038;-74
2022/04/01 13:10:07;;;;;;;19.27;17.73;;;;;;;;;;4965727;28;20418;-74
2022/04/01 13:12:34;;;;;;;19.48;17.83;;;;;;;;;;4966828;28;20057;-74
2022/04/01 13:15:01;;;;;;;20.02;18.10;;;;;;;;;;4967066;28;20580;-73
2022/04/01 13:17:27;;;;;;;20.17;18.55;;;;;;;;;;4964941;28;20046;-73
2022/04/01 13:19:53;;;;;;;19.98;18.00;;;;;;;;;;4967126;28;20039;-73
2022/04/01 13:22:19;;;;;;;18.73;17.20;;;;;;;;;;4967375;28;20074;-73
2022/04/01 13:24:49;;;;;;;20.00;18.30;;;;;;;;;;4966258;28;20047;-73
2022/04/01 13:27:20;;;;;;;20.27;18.50;;;;;;;;;;4965207;28;20094;-74
2022/04/01 13:29:46;;;;;;;22.38;20.48;;;;;;;;;;4967092;28;20068;-73
2022/04/01 13:32:14;;;;;;;21.25;19.42;;;;;;;;;;4965740;28;20562;-73
2022/04/01 13:34:40;;;;;;;23.08;21.13;;;;;;;;;;4955088;28;20402;-73
2022/04/01 13:37:08;;;;;;;26.08;23.35;;;;;;;;;;4966608;28;20686;-74
2022/04/01 13:39:34;;;;;;;19.70;18.08;;;;;;;;;;4966478;28;20405;-73
2022/04/01 13:42:01;;;;;;;19.08;17.48;;;;;;;;;;4965851;28;20034;-74
2022/04/01 13:44:29;;;;;;;23.38;21.17;;;;;;;;;;4968492;28;20074;-73
2022/04/01 13:46:55;;;;;;;23.17;21.10;;;;;;;;;;4970251;28;20053;-73
2022/04/01 13:49:21;;;;;;;22.23;20.33;;;;;;;;;;4968874;28;20038;-73
2022/04/01 13:51:46;;;;;;;20.98;19.08;;;;;;;;;;4970774;28;20046;-72
2022/04/01 13:54:12;;;;;;;21.27;19.38;;;;;;;;;;4970932;28;20473;-73
2022/04/01 13:56:38;;;;;;;21.55;19.65;;;;;;;;;;4969346;28;20042;-74
2022/04/01 13:59:05;;;;;;;23.48;21.45;;;;;;;;;;4967904;28;20066;-71
2022/04/01 14:01:35;;;;;;;21.98;19.98;;;;;;;;;;4968370;28;20035;-72
2022/04/01 14:04:01;;;;;;;23.42;21.02;;;;;;;;;;4970924;28;20477;-72
2022/04/01 14:06:27;;;;;;;25.10;22.80;;;;;;;;;;4972125;28;20035;-72
2022/04/01 14:08:54;;;;;;;23.67;21.45;;;;;;;;;;4971567;28;20761;-72
2022/04/01 14:11:22;;;;;;;22.13;20.02;;;;;;;;;;4972415;28;20482;-73
2022/04/01 14:13:48;;;;;;;25.13;22.65;;;;;;;;;;4972326;28;20038;-73
2022/04/01 14:16:14;;;;;;;22.23;20.23;;;;;;;;;;4971942;28;20481;-72
2022/04/01 14:18:39;;;;;;;22.35;20.25;;;;;;;;;;4971187;28;20043;-73
2022/04/01 14:21:06;;;;;;;22.30;20.40;;;;;;;;;;4972147;28;20046;-72
2022/04/01 14:23:34;;;;;;;21.25;19.25;;;;;;;;;;4972221;28;20089;-72
2022/04/01 14:26:08;;;;;;;22.02;20.02;;;;;;;;;;4971616;28;20041;-71
2022/04/01 14:28:36;;;;;;;21.02;19.23;;;;;;;;;;4970204;28;20480;-72
2022/04/01 14:31:02;;;;;;;19.77;18.13;;;;;;;;;;4972252;28;20128;-72
2022/04/01 14:33:30;;;;;;;21.40;19.38;;;;;;;;;;4969475;28;20537;-72
2022/04/01 14:35:56;;;;;;;23.70;21.60;;;;;;;;;;4971118;28;20069;-72
2022/04/01 14:38:22;;;;;;;22.55;20.50;;;;;;;;;;4971684;28;20074;-72
2022/04/01 14:40:52;;;;;;;22.75;20.65;;;;;;;;;;4970199;28;20039;-73
2022/04/01 14:43:18;;;;;;;;;;;;;;;;;;4970733;28;20129;-71
2022/04/01 14:45:47;;;;;;;21.95;20.00;;;;;;;;;;4971321;28;19914;-72
2022/04/01 14:48:13;;;;;;;;;;;;;;;;;;4970674;28;20034;-72
2022/04/01 14:50:38;;;;;;;25.55;23.17;;;;;;;;;;4971062;28;19936;-72
2022/04/01 14:53:05;;;;;;;26.15;23.67;;;;;;;;;;4971539;28;20043;-72